x

Canaveral 20 Nm East Of Cape Canaveral, Fl (41009) Weather Station

1:20am - Thu 1st Sep 2016 All times are EDT. -4 hours from GMT.

  • Wind
    18mph, 22mph gusts
  • Sea Temp 82°f
  • Air Temp 75°f
  • Sea Pressure 1016mb
  • Canaveral 20 Nm East Of Cape Canaveral, Fl
  • Canaveral 20 Nm East Of Cape Canaveral, Fl

More Historic Weather Station data

Upgrade to MSW Pro to gain access to the past 30 days of data for over 8000 Wavebouys and Weather Stations around the globe.

Join Pro

Comparision Forecast

View Surf forecast
   
Thu 09/01 1:20am  -   -   -  18 22 mph 1016mb 82f 75f
12:50am 3.5ft 11s 5s 25 29 mph 1015.5mb 82f 76f
12:20am  -   -   -  16 29 mph 1015.3mb 82f 79f
Wed 08/31 11:50pm 3.5ft 11s 5s 7 9 mph 1015.3mb 82f 80f
11:20pm  -   -   -  9 11 mph 1015.1mb 82f 80f
10:50pm 3.5ft 11s 5s 11 13 mph 1014.9mb 82f 80f
10:20pm  -   -   -  9 13 mph 1015mb 82f 79f
9:50pm 4.5ft 5s 5s 13 18 mph 1014.9mb 82f 79f
9:20pm  -   -   -  20 25 mph 1014.8mb 82f 75f
8:50pm 4ft 11s 5s 13 18 mph 1014.4mb 82f 78f
8:20pm  -   -   -  13 16 mph 1014.1mb 82f 79f
7:50pm 3.5ft 11s 5s 20 25 mph 1013.6mb 82f 78f
6:50pm 3.5ft 11s 5s 11 13 mph 1012.9mb 82f 77f
6:20pm  -   -   -  16 18 mph 1012.9mb 82f 76f
5:50pm 3.5ft 12s 4s 22 29 mph 1013.5mb 82f 75f
5:20pm  -   -   -  13 18 mph 1012.8mb 82f 83f
4:50pm 3.5ft 11s 5s 13 18 mph 1012.2mb 82f 82f
4:20pm  -   -   -  16 18 mph 1012.6mb 82f 82f
3:50pm 3.5ft 11s 5s 16 18 mph 1012.7mb 82f 82f
3:20pm  -   -   -  13 16 mph 1013.1mb 82f 82f
2:50pm 4ft 11s 5s 13 16 mph 1013.2mb 82f 82f
2:20pm  -   -   -  16 18 mph 1013.3mb 82f 82f
1:50pm 4.5ft 11s 5s 16 18 mph 1013.4mb 82f 82f
1:20pm  -   -   -  16 20 mph 1013.5mb 82f 82f
12:50pm 4ft 11s 5s 18 20 mph 1013.7mb 82f 82f
12:20pm  -   -   -  16 20 mph 1014mb 82f 81f
11:50am 4.5ft 11s 5s 18 20 mph 1014.3mb 82f 81f
11:20am  -   -   -  18 20 mph 1014.3mb 82f 81f
10:20am  -   -   -  18 22 mph 1014.3mb 82f 81f
9:50am 5ft 5s 5s 18 20 mph 1014.1mb 82f 82f
9:20am  -   -   -  20 22 mph 1013.6mb 82f 82f
8:50am 5ft 6s 5s 18 20 mph 1013.3mb 82f 82f
8:20am  -   -   -  18 22 mph 1013.2mb 82f 82f
7:50am 6ft 6s 5s 22 27 mph 1013mb 82f 82f
7:20am  -   -   -  22 27 mph 1012.9mb 82f 81f
6:50am 6ft 6s 5s 20 25 mph 1012.8mb 83f 81f
6:20am  -   -   -  25 29 mph 1012.3mb 83f 82f
5:50am 6ft 6s 5s 22 27 mph 1012.3mb 83f 82f
5:20am  -   -   -  22 29 mph 1012.3mb 83f 82f
4:50am 6ft 6s 5s 25 29 mph 1012.3mb 83f 81f
4:20am  -   -   -  22 27 mph 1012.7mb 83f 82f
3:50am 6ft 6s 5s 25 29 mph 1012.6mb 83f 81f
3:20am  -   -   -  25 29 mph 1012.5mb 83f 81f
2:50am 6ft 5s 5s 22 29 mph 1012.9mb 83f 81f
2:20am  -   -   -  25 29 mph 1013.1mb 83f 81f
1:50am 7ft 5s 5s 27 31 mph 1013.2mb 83f 81f
1:20am  -   -   -  27 31 mph 1013.3mb 83f 81f
12:50am 6ft 5s 5s 22 27 mph 1013.8mb 83f 80f
12:20am  -   -   -  25 29 mph 1014.1mb 83f 81f
Tue 08/30 11:50pm 6ft 5s 5s 25 29 mph 1014.1mb 83f 81f
11:20pm  -   -   -  25 27 mph 1013.9mb 83f 81f
10:50pm 5.5ft 12s 5s 25 29 mph 1013.8mb 83f 81f
10:20pm  -   -   -  22 27 mph 1013.8mb 83f 80f
9:50pm 6ft 13s 5s 22 25 mph 1013.9mb 83f 80f
9:20pm  -   -   -  22 29 mph 1013.6mb 83f 81f
8:50pm 5.5ft 5s 5s 22 27 mph 1013.2mb 83f 81f
8:20pm  -   -   -  22 27 mph 1012.7mb 83f 81f
7:50pm 5ft 13s 5s 20 22 mph 1013mb 83f 80f
7:20pm  -   -   -  22 25 mph 1012.6mb 83f 80f
6:50pm 5.5ft 12s 5s 20 25 mph 1012.2mb 83f 80f
6:20pm  -   -   -  20 25 mph 1012.1mb 83f 79f
5:50pm 5ft 11s 5s 22 29 mph 1012.1mb 83f 79f
5:20pm  -   -   -  25 29 mph 1012.2mb 83f 79f
4:50pm 5ft 11s 5s 25 29 mph 1012.7mb 83f 78f
3:50pm 5ft 13s 5s 25 29 mph 1012.5mb 83f 80f
3:20pm  -   -   -  18 20 mph 1012.9mb 83f 82f
2:50pm 5ft 12s 5s 13 18 mph 1013.2mb 83f 81f
2:20pm  -   -   -  16 18 mph 1013.2mb 83f 81f
1:50pm 5ft 12s 6s 9 11 mph 1013.5mb 83f 81f
1:20pm  -   -   -  9 11 mph 1013.8mb 83f 80f
12:50pm 5.5ft 6s 5s 13 18 mph 1013.9mb 83f 80f
12:20pm  -   -   -  16 18 mph 1013.9mb 83f 79f
11:50am 5ft 11s 5s 13 20 mph 1014.3mb 83f 80f
10:50am 5ft 6s 5s 9 11 mph 1015mb 83f 79f
10:20am  -   -   -  11 13 mph 1015.1mb 83f 78f
9:50am 5ft 6s 5s 13 16 mph 1015.1mb 83f 77f
9:20am  -   -   -  16 20 mph 1014.8mb 83f 76f
8:50am 5ft 12s 5s 13 18 mph 1014.4mb 83f 77f
8:20am  -   -   -  20 29 mph 1014mb 83f 79f
7:50am 5ft 7s 5s 20 25 mph 1013.7mb 83f 78f
7:20am  -   -   -  18 20 mph 1013.5mb 83f 79f
6:50am 6ft 6s 5s 22 27 mph 1013.2mb 83f 79f
6:20am  -   -   -  22 25 mph 1013mb 83f 80f
5:50am 5.5ft 5s 5s 20 25 mph 1012.8mb 83f 80f
5:20am  -   -   -  20 25 mph 1012.9mb 83f 79f
4:50am 5ft 5s 5s 22 27 mph 1012.9mb 83f 79f
4:20am  -   -   -  22 27 mph 1012.9mb 83f 79f
3:50am 5ft 5s 5s 25 29 mph 1012.7mb 83f 78f
3:20am  -   -   -  25 31 mph 1013.4mb 83f 79f
2:50am 4.5ft 13s 5s 22 27 mph 1013.7mb 83f 79f
2:20am  -   -   -  18 22 mph 1014.1mb 83f 81f
1:50am 4.5ft 13s 5s 20 22 mph 1014.2mb 83f 81f
1:20am  -   -   -  16 18 mph 1014.5mb 83f 81f
12:50am 4ft 13s 5s 18 20 mph 1015mb 83f 80f
12:20am  -   -   -  16 18 mph 1015mb 83f 81f
Mon 08/29 11:50pm 4ft 13s 5s 16 20 mph 1014.9mb 83f 80f
11:20pm  -   -   -  18 20 mph 1015mb 83f 81f
10:50pm 4ft 13s 5s 18 22 mph 1015.2mb 83f 80f
10:20pm  -   -   -  18 22 mph 1014.6mb 83f 80f
9:50pm 4ft 13s 5s 22 27 mph 1014.3mb 83f 80f
9:20pm  -   -   -  22 27 mph 1014.2mb 83f 81f
8:50pm 4ft 13s 5s 16 18 mph 1014.2mb 83f 80f
8:20pm  -   -   -  13 18 mph 1014.2mb 83f 81f
7:50pm 4ft 13s 5s 13 16 mph 1014.3mb 83f 79f
7:20pm  -   -   -  20 25 mph 1014mb 83f 80f
6:50pm 4.5ft 14s 5s 16 20 mph 1013.6mb 83f 83f
6:20pm  -   -   -  16 20 mph 1013.9mb 83f 83f
5:50pm 3.5ft 14s  -  16 20 mph 1013.6mb 83f 82f
5:20pm  -   -   -  11 16 mph 1013.7mb 83f 83f
4:20pm  -   -   -  13 16 mph 1013.7mb 83f 82f
3:50pm 3.5ft 14s 5s 18 20 mph 1013.7mb 83f 80f
3:20pm  -   -   -  16 18 mph 1014mb 83f 83f
2:50pm 4ft 14s 5s 16 18 mph 1014.3mb 83f 82f
2:20pm  -   -   -  16 18 mph 1014.5mb 83f 83f
1:50pm 3.5ft 14s 5s 13 16 mph 1014.9mb 83f 83f
1:20pm  -   -   -  11 13 mph 1015.1mb 83f 83f
12:50pm 3.5ft 14s 5s 13 16 mph 1015.4mb 83f 83f
12:20pm  -   -   -  11 16 mph 1015.4mb 83f 83f
11:50am 3.5ft 14s 5s 16 20 mph 1015.4mb 83f 83f
11:20am  -   -   -  16 18 mph 1015.3mb 83f 83f
10:50am 3.5ft 14s 5s 11 13 mph 1015.4mb 83f 84f
10:20am  -   -   -  13 16 mph 1015.2mb 83f 83f
9:50am 3.5ft 14s 5s 13 16 mph 1015mb 83f 83f
9:20am  -   -   -  13 16 mph 1014.8mb 83f 84f
8:50am 4ft 14s 5s 13 18 mph 1014.6mb 83f 84f
8:20am  -   -   -  11 13 mph 1014.6mb 83f 83f
7:50am 3.5ft 14s 5s 9 13 mph 1014.4mb 83f 83f
7:20am  -   -   -  11 13 mph 1014.2mb 83f 83f
6:50am 3.5ft 14s 5s 9 11 mph 1014mb 83f 83f
6:20am  -   -   -  9 11 mph 1013.9mb 83f 83f
5:50am 3.5ft 14s 5s 9 11 mph 1013.6mb 83f 83f
5:20am  -   -   -  9 11 mph 1013.5mb 83f 83f
4:50am 3.5ft 15s 5s 11 13 mph 1013.6mb 83f 83f
4:20am  -   -   -  11 13 mph 1013.8mb 83f 83f
3:50am 3.5ft 15s 5s 7 9 mph 1013.8mb 83f 83f
3:20am  -   -   -  9 16 mph 1014mb 83f 83f
2:50am 3.5ft 15s 5s 11 13 mph 1014.1mb 83f 83f
2:20am  -   -   -  11 13 mph 1014.1mb 83f 83f
1:50am 3.5ft 7s 5s 11 13 mph 1014.4mb 83f 83f
1:20am  -   -   -  13 16 mph 1014.8mb 83f 83f
12:50am 3.5ft 16s 5s 9 13 mph 1014.8mb 83f 83f
12:20am  -   -   -  11
mph
1015.1mb 83f 83f
Sun 08/28 11:50pm 3.5ft 5s 5s 9 11 mph 1015.4mb 83f 83f
11:20pm  -   -   -  11 13 mph 1015.8mb 83f 82f
10:50pm 3.5ft 8s 5s 9 11 mph 1015.8mb 83f 83f
10:20pm  -   -   -  9 11 mph 1015.5mb 83f 83f
9:50pm 3.5ft 7s 5s 9 11 mph 1015.2mb 83f 83f
9:20pm  -   -   -  9 11 mph 1014.9mb 83f 83f
8:50pm 3.5ft 8s 5s 9 11 mph 1014.7mb 83f 83f
8:20pm  -   -   -  7 9 mph 1014.4mb 83f 82f
7:50pm 3.5ft 8s 5s 7 11 mph 1014.2mb 83f 82f
7:20pm  -   -   -  7 9 mph 1014mb 83f 81f
6:50pm 3.5ft 6s 5s 27 34 mph 1013.7mb 83f 79f
6:20pm  -   -   -  13 16 mph 1013.9mb 83f 83f
5:50pm 3.5ft 8s 5s 13 18 mph 1014mb 83f 84f
5:20pm  -   -   -  9 11 mph 1014.2mb 84f 83f
4:50pm 3.5ft 8s 5s 11 13 mph 1014.2mb 83f 84f
4:20pm  -   -   -  11 13 mph 1014.2mb 84f 84f
3:50pm 3.5ft 8s 5s 11 13 mph 1014.4mb 84f 84f
3:20pm  -   -   -  9 11 mph 1014.7mb 84f 84f
2:50pm 3.5ft 8s 5s 9
mph
1015.2mb 84f 84f
2:20pm  -   -   -  9
mph
1015.5mb 84f 84f
1:50pm 3.5ft 6s 5s 9
mph
1015.6mb 84f 84f
1:20pm  -   -   -  9
mph
1015.8mb 84f 84f
12:50pm 3.5ft 9s 5s 7 9 mph 1015.9mb 83f 84f
12:20pm  -   -   -  9
mph
1016.2mb 83f 84f
11:50am 4ft 7s 5s 9 11 mph 1016.4mb 83f 84f
11:20am  -   -   -  9 11 mph 1016.5mb 83f 83f
10:20am  -   -   -  9 11 mph 1016.5mb 83f 83f
9:50am 4ft 7s 5s 11
mph
1016.4mb 83f 83f
9:20am  -   -   -  11 16 mph 1016.1mb 82f 83f
8:50am 4.5ft 9s 5s 11 13 mph 1015.8mb 83f 83f
8:20am  -   -   -  9 13 mph 1015.7mb 82f 83f
7:50am 4ft 8s 5s 13 18 mph 1015.6mb 82f 83f
7:20am  -   -   -  11 13 mph 1015.3mb 82f 83f
6:50am 4.5ft 9s 5s 11 13 mph 1015.1mb 82f 83f